Terminal Aerodrome Forecast
Issued by NWS

Home | Current Version | Previous Version | Text Only | Print | Product List | Glossary On
Versions: 1 2 3 4 5 6 7 8 9 10 11 12 13 14 15
968
FTUS46 KSEW 291121
TAFOLM
TAF
KOLM 291121Z 2912/3012 13003KT P6SM FEW003 BKN250
      TEMPO 2913/2917 3/4SM BR BKN003 BKN250
     FM291900 03004KT P6SM FEW005 BKN250
     FM292100 36007KT P6SM BKN250
     FM300300 00000KT P6SM SCT150 BKN250=

USA.gov is the U.S. government's official web portal to all federal, state and local government web resources and services.